Time;durP1;ratioP1;P1;durP2;ratioP2;P2;SDS_P1;SDS_P2;PMS_P1;PMS_P2;Temp;Humidity;BMP_temperature;BMP_pressure;BME280_temperature;BME280_humidity;BME280_pressure;Samples;Min_cycle;Max_cycle;Signal;HPM_P1;HPM_P2
2023/07/17 00:02:20;;;;;;;4.15;3.45;;;18.30;57.90;;;;;;871759;162;27442;-73
2023/07/17 00:04:47;;;;;;;4.30;3.30;;;18.30;58.00;;;;;;871406;163;27451;-73
2023/07/17 00:07:13;;;;;;;5.25;3.55;;;18.30;58.20;;;;;;872264;163;27534;-73
2023/07/17 00:09:40;;;;;;;4.08;3.65;;;18.30;58.20;;;;;;873578;160;27518;-73
2023/07/17 00:12:06;;;;;;;5.80;3.83;;;18.30;58.40;;;;;;874005;160;27786;-73
2023/07/17 00:14:33;;;;;;;4.60;3.85;;;18.30;58.50;;;;;;874124;160;27455;-73
2023/07/17 00:17:00;;;;;;;3.65;3.35;;;18.20;58.60;;;;;;873033;163;27455;-73
2023/07/17 00:19:26;;;;;;;4.20;3.70;;;18.20;58.70;;;;;;874018;160;27515;-73
2023/07/17 00:21:53;;;;;;;5.28;3.60;;;18.20;58.70;;;;;;874049;160;27423;-73
2023/07/17 00:24:19;;;;;;;5.37;4.17;;;18.20;58.90;;;;;;873557;163;27450;-73
2023/07/17 00:26:46;;;;;;;5.62;3.22;;;18.10;59.00;;;;;;873802;162;27562;-73
2023/07/17 00:29:23;;;;;;;4.33;3.35;;;18.10;59.20;;;;;;873381;160;27528;-73
2023/07/17 00:31:48;;;;;;;3.83;3.42;;;18.10;59.30;;;;;;874033;161;27495;-73
2023/07/17 00:34:15;;;;;;;3.30;3.00;;;18.00;59.30;;;;;;873206;163;27544;-73
2023/07/17 00:36:41;;;;;;;3.75;3.35;;;18.00;59.50;;;;;;873138;162;27535;-73
2023/07/17 00:39:08;;;;;;;4.10;3.20;;;17.90;59.60;;;;;;873311;161;27426;-73
2023/07/17 00:41:34;;;;;;;4.92;3.35;;;17.90;59.70;;;;;;874176;161;27420;-73
2023/07/17 00:44:01;;;;;;;4.17;3.77;;;17.90;59.20;;;;;;872963;161;27411;-73
2023/07/17 00:46:28;;;;;;;4.58;3.22;;;17.80;60.00;;;;;;873177;160;27419;-73
2023/07/17 00:48:54;;;;;;;5.50;3.45;;;17.80;60.10;;;;;;873506;162;27535;-73
2023/07/17 00:51:21;;;;;;;4.78;3.92;;;17.80;60.30;;;;;;873421;161;27451;-73
2023/07/17 00:53:47;;;;;;;5.40;3.67;;;17.70;60.40;;;;;;873561;161;27427;-73
2023/07/17 00:56:14;;;;;;;4.25;3.15;;;17.70;60.70;;;;;;873410;161;27453;-73
2023/07/17 00:58:40;;;;;;;3.30;3.00;;;17.60;60.80;;;;;;873477;161;27455;-73
2023/07/17 01:01:08;;;;;;;4.37;3.30;;;17.60;61.00;;;;;;872934;161;27443;-73
2023/07/17 01:03:34;;;;;;;4.03;3.60;;;17.60;61.20;;;;;;873102;162;27411;-73
2023/07/17 01:06:00;;;;;;;3.90;3.37;;;17.50;62.10;;;;;;873016;163;27435;-73
2023/07/17 01:08:27;;;;;;;3.60;3.30;;;17.50;61.60;;;;;;872856;162;27431;-73
2023/07/17 01:10:53;;;;;;;4.17;3.60;;;17.50;61.70;;;;;;872817;161;27455;-73
2023/07/17 01:13:20;;;;;;;3.85;3.50;;;17.50;61.90;;;;;;873093;161;27427;-73
2023/07/17 01:15:47;;;;;;;4.60;3.77;;;17.40;62.10;;;;;;873008;161;27420;-73
2023/07/17 01:18:13;;;;;;;4.83;3.92;;;17.40;62.30;;;;;;872624;163;27443;-73
2023/07/17 01:20:40;;;;;;;4.08;3.22;;;17.40;62.50;;;;;;872449;161;27988;-73
2023/07/17 01:23:06;;;;;;;3.50;3.20;;;17.40;62.50;;;;;;872751;163;27553;-73
2023/07/17 01:25:33;;;;;;;5.22;4.12;;;17.40;62.70;;;;;;872821;163;27792;-73
2023/07/17 01:28:00;;;;;;;3.97;3.63;;;17.40;62.70;;;;;;872823;163;27505;-73
2023/07/17 01:30:26;;;;;;;4.83;3.67;;;17.40;62.80;;;;;;871786;161;27439;-73
2023/07/17 01:32:53;;;;;;;6.30;4.13;;;17.30;62.90;;;;;;867212;161;27468;-73
2023/07/17 01:35:19;;;;;;;5.42;3.50;;;17.30;63.10;;;;;;869752;162;27478;-73
2023/07/17 01:37:46;;;;;;;3.67;3.37;;;17.30;63.20;;;;;;864393;164;27546;-73
2023/07/17 01:40:12;;;;;;;3.80;3.50;;;17.30;63.40;;;;;;864131;163;27500;-73
2023/07/17 01:42:39;;;;;;;3.95;3.55;;;17.30;63.60;;;;;;863578;162;27830;-73
2023/07/17 01:45:06;;;;;;;4.80;4.20;;;17.30;63.80;;;;;;864683;162;27455;-73
2023/07/17 01:47:32;;;;;;;4.62;4.10;;;17.30;63.90;;;;;;864076;164;27502;-73
2023/07/17 01:50:01;;;;;;;3.92;3.55;;;17.30;64.00;;;;;;863885;163;27526;-73
2023/07/17 01:52:26;;;;;;;4.30;3.50;;;17.30;64.10;;;;;;857353;162;27556;-73
2023/07/17 01:54:52;;;;;;;3.87;3.55;;;17.30;64.20;;;;;;863499;163;27447;-73
2023/07/17 01:57:19;;;;;;;4.30;3.65;;;17.30;64.20;;;;;;863451;164;27810;-73
2023/07/17 01:59:45;;;;;;;5.37;3.87;;;17.20;64.30;;;;;;864018;162;27508;-73
2023/07/17 02:02:12;;;;;;;4.95;3.83;;;17.20;64.40;;;;;;865968;162;27454;-73
2023/07/17 02:04:39;;;;;;;4.25;3.65;;;17.20;64.60;;;;;;863976;162;27451;-70
2023/07/17 02:07:05;;;;;;;3.92;3.60;;;17.20;64.70;;;;;;863492;163;27561;-71
2023/07/17 02:09:32;;;;;;;4.62;3.50;;;17.10;64.80;;;;;;864057;162;27452;-71
2023/07/17 02:11:58;;;;;;;4.20;3.80;;;17.10;65.00;;;;;;863511;162;27553;-71
2023/07/17 02:14:25;;;;;;;4.17;3.47;;;17.10;65.30;;;;;;863665;162;27478;-70
2023/07/17 02:16:52;;;;;;;3.58;3.27;;;17.10;65.50;;;;;;863774;162;27551;-71
2023/07/17 02:19:19;;;;;;;4.87;3.60;;;17.10;65.70;;;;;;863399;162;27473;-70
2023/07/17 02:21:45;;;;;;;3.47;3.17;;;17.20;65.90;;;;;;848771;165;27494;-71
2023/07/17 02:24:11;;;;;;;4.37;3.98;;;17.20;66.10;;;;;;863779;162;27602;-71
2023/07/17 02:26:38;;;;;;;3.50;3.20;;;17.20;66.20;;;;;;863869;162;27550;-70
2023/07/17 02:29:04;;;;;;;4.78;3.60;;;17.30;66.30;;;;;;863526;164;27447;-71
2023/07/17 02:31:31;;;;;;;4.50;3.75;;;17.30;66.30;;;;;;864821;162;27559;-71
2023/07/17 02:33:58;;;;;;;4.78;3.42;;;17.40;66.30;;;;;;872947;161;27463;-70
2023/07/17 02:36:24;;;;;;;3.62;3.20;;;17.40;66.30;;;;;;872970;163;27574;-71
2023/07/17 02:38:51;;;;;;;3.52;3.22;;;17.40;66.20;;;;;;873117;163;27467;-70
2023/07/17 02:41:17;;;;;;;3.92;3.42;;;17.40;66.20;;;;;;872797;161;27534;-70
2023/07/17 02:43:44;;;;;;;3.65;3.20;;;17.40;66.30;;;;;;872649;163;27420;-70
2023/07/17 02:46:11;;;;;;;3.50;3.20;;;17.40;66.40;;;;;;872581;163;27506;-70
2023/07/17 02:48:37;;;;;;;4.28;3.50;;;17.40;66.60;;;;;;872656;163;27548;-74
2023/07/17 02:51:04;;;;;;;4.28;3.42;;;17.50;66.70;;;;;;872320;161;27454;-74
2023/07/17 02:53:30;;;;;;;3.50;3.05;;;17.50;66.80;;;;;;872686;163;27783;-74
2023/07/17 02:55:57;;;;;;;3.80;3.40;;;17.50;66.80;;;;;;873091;161;27598;-75
2023/07/17 02:58:24;;;;;;;6.28;3.75;;;17.50;66.90;;;;;;872120;163;27831;-75
2023/07/17 03:00:50;;;;;;;4.42;3.20;;;17.50;66.80;;;;;;872819;161;27461;-75
2023/07/17 03:03:17;;;;;;;4.07;3.50;;;17.50;66.90;;;;;;872954;161;27432;-75
2023/07/17 03:05:43;;;;;;;4.63;3.43;;;17.50;66.80;;;;;;873166;163;28065;-75
2023/07/17 03:08:10;;;;;;;5.00;3.22;;;17.50;66.90;;;;;;872730;163;27435;-74
2023/07/17 03:10:36;;;;;;;4.20;3.60;;;17.40;66.90;;;;;;872617;161;27434;-74
2023/07/17 03:13:03;;;;;;;3.75;3.12;;;17.40;67.10;;;;;;872099;161;27455;-75
2023/07/17 03:15:30;;;;;;;3.95;3.33;;;17.40;67.20;;;;;;872624;162;27424;-74
2023/07/17 03:17:56;;;;;;;5.08;3.75;;;17.30;67.20;;;;;;872514;163;27518;-74
2023/07/17 03:20:23;;;;;;;4.00;3.60;;;17.30;67.40;;;;;;872790;161;27459;-74
2023/07/17 03:22:49;;;;;;;4.85;3.50;;;17.20;67.40;;;;;;872652;163;27459;-74
2023/07/17 03:25:16;;;;;;;4.33;3.33;;;17.20;67.70;;;;;;873090;162;27537;-74
2023/07/17 03:27:43;;;;;;;4.60;3.07;;;17.10;67.70;;;;;;872567;162;27478;-74
2023/07/17 03:30:09;;;;;;;4.15;3.42;;;17.10;68.00;;;;;;873276;161;27934;-74
2023/07/17 03:32:36;;;;;;;4.80;4.10;;;17.00;68.00;;;;;;872573;161;27486;-74
2023/07/17 03:35:02;;;;;;;4.23;3.63;;;17.00;68.20;;;;;;872424;162;27479;-74
2023/07/17 03:37:29;;;;;;;3.80;3.40;;;17.00;68.40;;;;;;872728;162;27514;-74
2023/07/17 03:39:56;;;;;;;3.90;3.50;;;16.90;68.50;;;;;;873345;161;27601;-75
2023/07/17 03:42:22;;;;;;;4.10;3.60;;;16.90;68.80;;;;;;873140;161;27557;-75
2023/07/17 03:44:49;;;;;;;4.87;3.97;;;16.80;69.00;;;;;;873154;161;27901;-75
2023/07/17 03:47:16;;;;;;;4.17;3.33;;;16.80;69.10;;;;;;872291;161;27529;-75
2023/07/17 03:49:42;;;;;;;3.60;3.30;;;16.80;69.30;;;;;;872610;161;27406;-75
2023/07/17 03:52:08;;;;;;;4.50;3.60;;;16.70;69.40;;;;;;873470;161;27463;-75
2023/07/17 03:54:35;;;;;;;6.33;3.37;;;16.70;69.60;;;;;;873576;162;27471;-75
2023/07/17 03:57:02;;;;;;;4.10;3.70;;;16.70;69.70;;;;;;873215;162;27436;-75
2023/07/17 03:59:29;;;;;;;4.12;3.83;;;16.70;69.90;;;;;;872963;161;27445;-75
2023/07/17 04:01:55;;;;;;;6.43;3.43;;;16.70;70.00;;;;;;873735;162;27436;-75
2023/07/17 04:04:21;;;;;;;5.65;3.83;;;16.70;70.20;;;;;;873388;163;27589;-75
2023/07/17 04:06:48;;;;;;;4.83;3.53;;;16.70;70.50;;;;;;872984;163;27803;-75
2023/07/17 04:09:15;;;;;;;3.90;3.47;;;16.70;70.60;;;;;;873638;161;27455;-75
2023/07/17 04:11:41;;;;;;;4.87;3.63;;;16.70;70.80;;;;;;872949;163;27801;-74
2023/07/17 04:14:08;;;;;;;4.95;3.42;;;16.80;71.00;;;;;;873047;163;27542;-75
2023/07/17 04:16:36;;;;;;;4.75;3.77;;;16.80;71.00;;;;;;872902;163;27459;-75
2023/07/17 04:19:01;;;;;;;4.13;3.50;;;16.90;71.30;;;;;;873155;162;27422;-74
2023/07/17 04:21:28;;;;;;;3.50;3.20;;;16.90;71.30;;;;;;873086;161;27565;-74
2023/07/17 04:23:54;;;;;;;4.37;3.35;;;17.00;71.40;;;;;;872549;159;27419;-75
2023/07/17 04:26:21;;;;;;;4.62;3.72;;;17.00;71.50;;;;;;873896;162;27536;-75
2023/07/17 04:28:47;;;;;;;5.62;4.05;;;17.10;71.60;;;;;;872773;162;27542;-75
2023/07/17 04:31:14;;;;;;;4.10;3.27;;;17.10;71.60;;;;;;872984;161;27444;-74
2023/07/17 04:33:41;;;;;;;3.87;3.47;;;17.20;71.70;;;;;;872699;161;27451;-74
2023/07/17 04:36:07;;;;;;;4.47;3.70;;;17.30;71.70;;;;;;874050;160;27455;-75
2023/07/17 04:38:34;;;;;;;4.72;3.75;;;17.40;71.70;;;;;;874058;162;27802;-75
2023/07/17 04:41:00;;;;;;;5.72;3.92;;;17.50;71.70;;;;;;873683;161;27517;-75
2023/07/17 04:43:27;;;;;;;3.90;3.40;;;17.60;71.80;;;;;;873536;162;27782;-75
2023/07/17 04:45:54;;;;;;;3.77;3.47;;;17.70;71.70;;;;;;874269;162;27448;-75
2023/07/17 04:48:20;;;;;;;4.00;3.42;;;17.70;71.60;;;;;;873697;163;27459;-75
2023/07/17 04:50:47;;;;;;;4.80;3.27;;;17.90;71.70;;;;;;874189;163;27778;-74
2023/07/17 04:53:13;;;;;;;4.50;3.77;;;17.90;71.60;;;;;;873707;160;27427;-75
2023/07/17 04:55:40;;;;;;;4.58;4.00;;;18.00;71.60;;;;;;873880;162;27532;-75
2023/07/17 04:58:07;;;;;;;4.10;3.70;;;18.10;71.60;;;;;;874056;162;27525;-75
2023/07/17 05:00:34;;;;;;;3.87;3.47;;;18.30;71.60;;;;;;873863;160;27581;-75
2023/07/17 05:03:00;;;;;;;4.17;3.55;;;18.40;71.60;;;;;;874470;160;27399;-75
2023/07/17 05:05:26;;;;;;;3.70;3.40;;;18.60;71.80;;;;;;874094;162;28278;-75
2023/07/17 05:07:53;;;;;;;3.92;3.35;;;18.80;72.10;;;;;;873723;163;27448;-75
2023/07/17 05:10:20;;;;;;;5.55;3.35;;;19.00;72.50;;;;;;873739;160;27537;-75
2023/07/17 05:12:46;;;;;;;3.67;3.27;;;19.30;73.00;;;;;;874279;160;27487;-75
2023/07/17 05:15:13;;;;;;;3.30;2.98;;;19.80;73.30;;;;;;873782;163;27529;-75
2023/07/17 05:17:39;;;;;;;5.33;3.27;;;20.30;73.30;;;;;;873504;163;27419;-75
2023/07/17 05:20:06;;;;;;;3.67;2.77;;;20.90;73.20;;;;;;873961;160;27435;-75
2023/07/17 05:22:33;;;;;;;3.20;2.90;;;21.50;72.60;;;;;;873887;160;27455;-75
2023/07/17 05:25:00;;;;;;;4.87;2.90;;;22.20;71.70;;;;;;874360;162;27519;-75
2023/07/17 05:27:26;;;;;;;3.00;2.75;;;22.80;70.70;;;;;;873181;160;27653;-75
2023/07/17 05:29:52;;;;;;;4.12;3.27;;;23.50;69.70;;;;;;873287;161;27955;-75
2023/07/17 05:32:19;;;;;;;3.12;2.65;;;24.20;68.20;;;;;;873880;160;27443;-75
2023/07/17 05:34:46;;;;;;;3.08;2.87;;;24.90;67.10;;;;;;873816;160;27915;-75
2023/07/17 05:37:13;;;;;;;2.62;2.42;;;25.60;66.00;;;;;;873183;163;27517;-75
2023/07/17 05:39:39;;;;;;;3.17;2.87;;;26.20;64.80;;;;;;873831;161;27405;-75
2023/07/17 05:42:05;;;;;;;2.90;2.67;;;26.90;63.70;;;;;;872947;161;27425;-76
2023/07/17 05:44:32;;;;;;;6.00;3.25;;;27.60;62.70;;;;;;872877;163;27448;-76
2023/07/17 05:46:59;;;;;;;3.00;2.47;;;28.30;61.60;;;;;;872779;162;27441;-76
2023/07/17 05:49:25;;;;;;;6.33;3.00;;;28.90;60.30;;;;;;872624;161;27789;-76
2023/07/17 05:51:52;;;;;;;3.27;2.60;;;29.60;59.30;;;;;;872057;161;27511;-76
2023/07/17 05:54:18;;;;;;;3.02;2.65;;;30.30;58.30;;;;;;872931;161;27523;-76
2023/07/17 05:56:45;;;;;;;2.77;2.58;;;30.90;57.10;;;;;;872265;161;27480;-76
2023/07/17 05:59:12;;;;;;;3.58;2.83;;;31.50;56.10;;;;;;872968;161;27511;-76
2023/07/17 06:01:38;;;;;;;2.60;2.37;;;32.10;55.10;;;;;;873195;159;27420;-76
2023/07/17 06:04:05;;;;;;;2.50;2.30;;;32.60;54.10;;;;;;872626;161;27420;-76
2023/07/17 06:06:31;;;;;;;3.15;2.52;;;33.10;53.30;;;;;;872239;162;27498;-76
2023/07/17 06:08:58;;;;;;;3.37;2.40;;;33.60;52.60;;;;;;872536;161;27560;-76
2023/07/17 06:11:24;;;;;;;2.90;2.60;;;34.10;51.90;;;;;;872222;161;27432;-76
2023/07/17 06:13:51;;;;;;;2.85;2.35;;;34.50;51.20;;;;;;873185;162;26319;-75
2023/07/17 06:16:18;;;;;;;3.10;2.62;;;35.00;50.40;;;;;;872413;161;26436;-75
2023/07/17 06:18:44;;;;;;;5.10;2.67;;;35.40;49.60;;;;;;872848;163;26374;-76
2023/07/17 06:21:11;;;;;;;3.47;3.08;;;35.80;48.90;;;;;;872201;163;26326;-76
2023/07/17 06:23:37;;;;;;;2.58;2.37;;;36.20;48.20;;;;;;872738;162;26341;-76
2023/07/17 06:26:04;;;;;;;2.62;2.40;;;36.50;47.60;;;;;;872869;163;26346;-76
2023/07/17 06:28:31;;;;;;;3.08;2.30;;;36.90;47.30;;;;;;871994;159;26444;-76
2023/07/17 06:30:58;;;;;;;2.92;2.58;;;37.20;46.90;;;;;;872323;161;26370;-75
2023/07/17 06:33:24;;;;;;;3.02;2.42;;;37.60;46.40;;;;;;871838;161;27436;-76
2023/07/17 06:35:51;;;;;;;2.72;2.22;;;38.10;46.40;;;;;;871634;161;26394;-76
2023/07/17 06:38:17;;;;;;;3.22;2.45;;;38.50;45.60;;;;;;872245;161;26354;-76
2023/07/17 06:40:44;;;;;;;3.02;2.40;;;39.00;44.70;;;;;;871981;161;26361;-76
2023/07/17 06:43:10;;;;;;;2.65;2.12;;;39.40;43.90;;;;;;872603;161;26419;-76
2023/07/17 06:45:37;;;;;;;3.27;2.55;;;39.70;42.80;;;;;;873165;162;26338;-76
2023/07/17 06:48:03;;;;;;;2.67;2.30;;;40.00;42.10;;;;;;872359;161;26413;-76
2023/07/17 06:50:30;;;;;;;8.75;2.50;;;40.30;41.60;;;;;;872794;162;26370;-76
2023/07/17 06:52:57;;;;;;;2.75;2.45;;;40.50;41.20;;;;;;872959;162;26330;-76
2023/07/17 06:55:23;;;;;;;2.80;2.40;;;40.70;40.60;;;;;;873645;162;26429;-76
2023/07/17 06:57:50;;;;;;;3.72;2.47;;;40.80;39.80;;;;;;872397;161;26342;-76
2023/07/17 07:00:16;;;;;;;2.37;2.17;;;40.90;39.00;;;;;;872596;161;26374;-74
2023/07/17 07:02:43;;;;;;;2.55;2.35;;;40.90;38.70;;;;;;872683;161;26341;-74
2023/07/17 07:05:09;;;;;;;3.00;2.30;;;41.00;38.60;;;;;;872843;163;26415;-74
2023/07/17 07:07:36;;;;;;;4.22;2.47;;;41.10;39.20;;;;;;872230;161;26342;-74
2023/07/17 07:10:03;;;;;;;4.28;2.40;;;41.30;38.60;;;;;;873635;161;26358;-76
2023/07/17 07:12:29;;;;;;;3.05;2.37;;;41.60;38.40;;;;;;872829;161;26513;-76
2023/07/17 07:14:56;;;;;;;3.05;2.30;;;41.90;37.80;;;;;;871589;161;26721;-76
2023/07/17 07:17:22;;;;;;;3.17;2.20;;;42.20;37.30;;;;;;872783;161;26354;-76
2023/07/17 07:19:49;;;;;;;4.47;2.00;;;42.40;36.90;;;;;;873233;161;26437;-76
2023/07/17 07:22:16;;;;;;;2.90;2.60;;;42.70;36.60;;;;;;872932;161;26381;-76
2023/07/17 07:24:45;;;;;;;3.30;2.20;;;43.10;36.10;;;;;;873143;161;26457;-76
2023/07/17 07:27:09;;;;;;;3.87;2.50;;;43.30;35.50;;;;;;872802;161;26330;-76
2023/07/17 07:29:35;;;;;;;2.55;2.35;;;43.70;34.60;;;;;;873169;162;26355;-76
2023/07/17 07:32:02;;;;;;;3.87;2.62;;;43.80;34.30;;;;;;873221;161;26431;-76
2023/07/17 07:34:29;;;;;;;2.65;2.45;;;44.00;33.50;;;;;;873136;161;26374;-76
2023/07/17 07:36:55;;;;;;;2.80;2.50;;;44.20;32.90;;;;;;873937;163;26447;-76
2023/07/17 07:39:22;;;;;;;3.42;2.62;;;44.20;32.40;;;;;;874069;160;26287;-76
2023/07/17 07:41:48;;;;;;;3.55;2.60;;;44.30;32.30;;;;;;874587;160;26452;-76
2023/07/17 07:44:15;;;;;;;5.20;2.77;;;44.40;32.20;;;;;;874131;160;26494;-76
2023/07/17 07:46:41;;;;;;;3.42;2.65;;;44.60;31.90;;;;;;874543;163;26938;-76
2023/07/17 07:49:08;;;;;;;2.77;2.40;;;44.70;31.60;;;;;;874511;162;26338;-76
2023/07/17 07:51:35;;;;;;;4.20;2.37;;;44.90;31.20;;;;;;874397;160;26274;-76
2023/07/17 07:54:01;;;;;;;2.40;2.20;;;45.10;30.90;;;;;;873650;162;26342;-76
2023/07/17 07:56:28;;;;;;;2.40;2.20;;;45.30;30.50;;;;;;874026;163;26429;-76
2023/07/17 07:58:54;;;;;;;4.45;2.55;;;45.40;30.20;;;;;;874453;160;26412;-76
2023/07/17 08:01:21;;;;;;;3.40;2.42;;;45.60;30.10;;;;;;874242;160;26342;-76
2023/07/17 08:03:48;;;;;;;3.17;2.70;;;45.80;29.90;;;;;;874340;160;26360;-76
2023/07/17 08:06:14;;;;;;;3.33;2.37;;;46.00;29.90;;;;;;873579;160;26438;-76
2023/07/17 08:08:41;;;;;;;2.58;2.00;;;46.30;29.60;;;;;;874176;160;26323;-76
2023/07/17 08:11:07;;;;;;;2.42;2.22;;;46.50;29.10;;;;;;874368;160;26396;-76
2023/07/17 08:13:34;;;;;;;2.58;2.20;;;46.80;28.90;;;;;;873495;160;26338;-76
2023/07/17 08:16:01;;;;;;;4.12;2.47;;;47.00;28.50;;;;;;874051;160;26353;-76
2023/07/17 08:18:27;;;;;;;2.55;2.08;;;47.20;28.20;;;;;;874548;160;26314;-76
2023/07/17 08:20:54;;;;;;;3.20;2.22;;;47.40;27.80;;;;;;874952;162;26447;-76
2023/07/17 08:23:26;;;;;;;2.47;2.20;;;47.60;27.60;;;;;;873342;160;26306;-76
2023/07/17 08:25:53;;;;;;;2.02;1.82;;;47.60;27.40;;;;;;874222;161;26366;-76
2023/07/17 08:28:19;;;;;;;3.02;1.98;;;47.50;26.90;;;;;;873858;160;26352;-76
2023/07/17 08:30:46;;;;;;;2.87;1.87;;;47.30;26.60;;;;;;874751;160;26342;-76
2023/07/17 08:33:13;;;;;;;2.70;1.82;;;46.90;26.40;;;;;;874390;160;26310;-77
2023/07/17 08:35:39;;;;;;;3.02;2.17;;;46.30;26.30;;;;;;873995;160;26533;-77
2023/07/17 08:38:06;;;;;;;4.35;2.35;;;45.80;26.30;;;;;;873603;160;26507;-76
2023/07/17 08:40:32;;;;;;;2.80;2.35;;;45.10;26.40;;;;;;873306;160;26251;-76
2023/07/17 08:42:59;;;;;;;2.52;2.02;;;44.40;26.50;;;;;;873819;161;26341;-76
2023/07/17 08:45:25;;;;;;;2.72;2.30;;;43.70;26.70;;;;;;874039;163;26742;-77
2023/07/17 08:47:53;;;;;;;2.95;2.00;;;43.00;26.90;;;;;;874418;162;26385;-76
2023/07/17 08:50:19;;;;;;;4.97;2.37;;;42.40;27.00;;;;;;874273;161;26357;-76
2023/07/17 08:52:45;;;;;;;3.37;2.00;;;41.80;27.00;;;;;;874078;160;26362;-76
2023/07/17 08:55:12;;;;;;;3.37;2.20;;;41.20;27.20;;;;;;874551;160;26322;-77
2023/07/17 08:57:38;;;;;;;2.45;1.95;;;40.70;27.80;;;;;;873991;161;26354;-77
2023/07/17 09:00:05;;;;;;;6.40;2.15;;;40.40;28.20;;;;;;874970;162;26423;-76
2023/07/17 09:02:32;;;;;;;2.10;1.90;;;40.00;28.30;;;;;;874566;161;26405;-76
2023/07/17 09:04:58;;;;;;;2.92;2.08;;;39.70;28.30;;;;;;874425;162;26388;-76
2023/07/17 09:07:25;;;;;;;2.60;2.08;;;39.30;28.20;;;;;;874516;162;26342;-76
2023/07/17 09:10:22;;;;;;;3.50;2.10;;;38.90;28.30;;;;;;874051;160;26378;-76
2023/07/17 09:12:54;;;;;;;2.65;2.05;;;38.40;28.50;;;;;;873534;161;26473;-76
2023/07/17 09:15:21;;;;;;;2.17;1.98;;;38.00;29.10;;;;;;873403;162;26408;-76
2023/07/17 09:17:47;;;;;;;2.87;1.98;;;37.80;29.30;;;;;;874187;160;27483;-76
2023/07/17 09:20:14;;;;;;;2.12;1.80;;;37.50;29.40;;;;;;874729;163;26378;-76
2023/07/17 09:22:40;;;;;;;3.55;2.45;;;37.30;29.40;;;;;;873937;160;27439;-76
2023/07/17 09:25:07;;;;;;;2.87;2.20;;;37.00;29.70;;;;;;874387;163;26287;-76
2023/07/17 09:27:46;;;;;;;3.12;1.70;;;36.70;29.80;;;;;;874179;161;27518;-76
2023/07/17 09:30:12;;;;;;;3.25;2.10;;;36.40;29.90;;;;;;874123;160;26343;-76
2023/07/17 09:32:39;;;;;;;2.70;2.05;;;36.10;30.10;;;;;;873955;160;27555;-76
2023/07/17 09:35:05;;;;;;;5.28;2.22;;;35.80;30.30;;;;;;873972;160;26330;-76
2023/07/17 09:37:32;;;;;;;3.02;2.02;;;35.60;30.60;;;;;;874003;162;27523;-76
2023/07/17 09:40:07;;;;;;;4.75;2.35;;;35.40;31.00;;;;;;873888;159;27453;-76
2023/07/17 09:42:30;;;;;;;3.37;3.08;;;35.20;31.10;;;;;;871959;161;27864;-76
2023/07/17 09:44:55;;;;;;;3.33;2.72;;;35.00;31.30;;;;;;872467;161;27506;-76
2023/07/17 09:47:21;;;;;;;2.87;2.35;;;34.80;31.10;;;;;;873478;162;27425;-76
2023/07/17 09:49:51;;;;;;;3.00;2.05;;;34.60;31.00;;;;;;873691;162;27506;-76
2023/07/17 09:52:18;;;;;;;3.72;2.30;;;34.40;31.30;;;;;;873052;161;27576;-76
2023/07/17 09:54:45;;;;;;;4.10;2.40;;;34.30;31.90;;;;;;872784;161;27416;-76
2023/07/17 09:57:11;;;;;;;3.92;2.40;;;34.30;32.60;;;;;;873326;161;26385;-76
2023/07/17 09:59:37;;;;;;;2.87;2.50;;;34.40;32.70;;;;;;872592;162;27400;-76
2023/07/17 10:02:04;;;;;;;2.85;2.22;;;34.50;32.60;;;;;;872211;161;27463;-76
2023/07/17 10:04:34;;;;;;;2.55;2.33;;;34.60;32.30;;;;;;873224;161;27423;-77
2023/07/17 10:07:00;;;;;;;2.65;2.35;;;34.50;31.80;;;;;;872059;161;27451;-77
2023/07/17 10:09:27;;;;;;;3.27;2.47;;;34.30;31.80;;;;;;872536;161;27418;-77
2023/07/17 10:11:53;;;;;;;2.80;2.40;;;34.20;32.30;;;;;;872793;161;27452;-76
2023/07/17 10:14:20;;;;;;;3.12;2.02;;;34.10;32.50;;;;;;873460;161;27843;-76
2023/07/17 10:16:46;;;;;;;5.17;2.60;;;34.00;32.40;;;;;;873413;163;27420;-77
2023/07/17 10:19:13;;;;;;;3.98;2.52;;;33.90;33.10;;;;;;873350;161;27345;-76
2023/07/17 10:21:51;;;;;;;3.27;2.50;;;33.90;32.20;;;;;;873622;161;27404;-76
2023/07/17 10:24:18;;;;;;;5.17;2.50;;;33.90;32.20;;;;;;871632;162;27545;-76
2023/07/17 10:26:45;;;;;;;5.92;2.30;;;33.70;32.10;;;;;;871651;161;27419;-77
2023/07/17 10:29:11;;;;;;;3.35;2.30;;;33.60;32.20;;;;;;873184;162;27453;-76
2023/07/17 10:31:38;;;;;;;2.15;2.02;;;33.40;32.20;;;;;;871290;162;27509;-76
2023/07/17 10:34:05;;;;;;;3.92;2.42;;;33.10;32.40;;;;;;870314;161;27483;-76
2023/07/17 10:36:37;;;;;;;3.35;2.67;;;32.90;32.80;;;;;;871313;161;27438;-76
2023/07/17 10:39:03;;;;;;;4.83;2.42;;;32.70;33.10;;;;;;871413;162;27546;-76
2023/07/17 10:41:30;;;;;;;3.42;2.47;;;32.60;33.30;;;;;;870351;161;27419;-76
2023/07/17 10:43:57;;;;;;;2.95;2.37;;;32.50;33.40;;;;;;870420;161;26406;-76
2023/07/17 10:46:27;;;;;;;2.50;2.30;;;32.50;33.50;;;;;;870225;161;27695;-76
2023/07/17 10:48:53;;;;;;;3.65;2.47;;;32.60;33.90;;;;;;866924;161;27457;-76
2023/07/17 10:51:19;;;;;;;4.08;2.40;;;32.60;33.60;;;;;;870080;161;28103;-76
2023/07/17 10:53:46;;;;;;;4.20;2.83;;;32.70;33.50;;;;;;869892;162;27419;-76
2023/07/17 10:56:12;;;;;;;3.47;1.80;;;32.80;33.50;;;;;;871780;159;27554;-76
2023/07/17 10:58:39;;;;;;;4.50;2.58;;;32.90;33.20;;;;;;872900;161;27954;-76
2023/07/17 11:01:06;;;;;;;2.45;2.00;;;33.00;33.20;;;;;;871950;160;27426;-76
2023/07/17 11:03:32;;;;;;;2.90;2.15;;;33.10;33.20;;;;;;871806;160;27472;-76
2023/07/17 11:05:59;;;;;;;3.05;2.10;;;33.10;33.10;;;;;;872211;162;27437;-76
2023/07/17 11:08:26;;;;;;;2.27;2.08;;;33.20;33.00;;;;;;872723;160;27537;-76
2023/07/17 11:10:52;;;;;;;2.62;2.37;;;33.30;32.80;;;;;;873140;162;27403;-76
2023/07/17 11:13:19;;;;;;;3.00;2.45;;;33.40;32.50;;;;;;872265;161;27421;-76
2023/07/17 11:15:45;;;;;;;3.30;2.37;;;33.40;32.30;;;;;;872882;160;27424;-76
2023/07/17 11:18:12;;;;;;;3.05;1.95;;;33.40;32.20;;;;;;872314;160;27549;-76
2023/07/17 11:20:39;;;;;;;4.03;2.50;;;33.40;32.10;;;;;;872585;160;27673;-76
2023/07/17 11:23:05;;;;;;;2.47;2.12;;;33.40;31.80;;;;;;872232;160;27432;-76
2023/07/17 11:25:31;;;;;;;4.40;2.45;;;33.40;31.80;;;;;;871721;161;27887;-76
2023/07/17 11:27:58;;;;;;;3.27;2.50;;;33.30;31.40;;;;;;871925;160;27455;-76
2023/07/17 11:30:27;;;;;;;2.60;2.40;;;33.30;31.40;;;;;;872409;160;27521;-76
2023/07/17 11:33:06;;;;;;;2.87;2.08;;;33.40;31.40;;;;;;871943;160;27373;-76
2023/07/17 11:35:44;;;;;;;2.92;2.37;;;33.40;31.40;;;;;;870255;162;27594;-75
2023/07/17 11:38:14;;;;;;;2.95;2.37;;;33.40;31.40;;;;;;870055;162;27547;-75
2023/07/17 11:40:50;;;;;;;2.58;2.37;;;33.40;31.50;;;;;;871905;160;27576;-75
2023/07/17 11:43:16;;;;;;;3.15;2.20;;;33.40;31.50;;;;;;870777;160;27522;-76
2023/07/17 11:47:15;;;;;;;3.22;2.60;;;33.40;31.40;;;;;;974447;143;29026;-75
2023/07/17 11:49:42;;;;;;;2.15;2.05;;;33.40;31.40;;;;;;967616;145;27327;-75
2023/07/17 11:52:17;;;;;;;2.42;2.08;;;33.40;31.20;;;;;;966026;146;27309;-75
2023/07/17 11:54:44;;;;;;;3.17;2.30;;;33.40;31.40;;;;;;965731;145;27252;-75
2023/07/17 11:57:10;;;;;;;2.37;2.10;;;33.40;31.30;;;;;;965211;145;27402;-75
2023/07/17 11:59:37;;;;;;;3.80;2.37;;;33.40;30.90;;;;;;922882;150;27396;-75
2023/07/17 12:02:03;;;;;;;3.05;2.17;;;33.40;30.90;;;;;;965334;145;27425;-75
2023/07/17 12:04:33;;;;;;;2.87;2.42;;;33.40;30.90;;;;;;965733;145;27396;-75
2023/07/17 12:07:00;;;;;;;3.08;2.30;;;33.40;31.00;;;;;;965637;145;27327;-75
2023/07/17 12:09:26;;;;;;;3.15;2.52;;;33.40;31.30;;;;;;964426;145;27311;-75
2023/07/17 12:11:52;;;;;;;2.37;2.17;;;33.30;31.20;;;;;;966452;145;27282;-75
2023/07/17 12:14:19;;;;;;;5.30;2.92;;;33.30;31.10;;;;;;965591;145;27287;-75
2023/07/17 12:16:46;;;;;;;3.12;2.50;;;33.30;31.10;;;;;;966752;145;27417;-75
2023/07/17 12:19:12;;;;;;;2.17;1.98;;;33.30;31.00;;;;;;967702;145;27788;-75
2023/07/17 12:21:39;;;;;;;2.70;2.50;;;33.20;31.00;;;;;;967451;146;27279;-75
2023/07/17 12:24:05;;;;;;;2.47;2.25;;;33.20;31.20;;;;;;966271;146;27396;-75
2023/07/17 12:26:32;;;;;;;3.35;2.20;;;33.10;31.20;;;;;;966701;146;27295;-75
2023/07/17 12:28:59;;;;;;;2.62;2.30;;;33.00;31.30;;;;;;965383;146;27770;-75
2023/07/17 12:31:25;;;;;;;2.22;2.02;;;33.10;31.40;;;;;;966372;145;27360;-75
2023/07/17 12:33:52;;;;;;;2.47;2.10;;;33.00;31.60;;;;;;963797;145;27352;-75
2023/07/17 12:36:18;;;;;;;3.70;2.60;;;33.00;31.60;;;;;;958466;148;27336;-75
2023/07/17 12:38:45;;;;;;;2.25;2.05;;;33.00;31.70;;;;;;958642;146;27332;-75
2023/07/17 12:41:14;;;;;;;2.83;2.30;;;32.90;31.70;;;;;;959364;147;27408;-75
2023/07/17 12:43:38;;;;;;;2.17;1.95;;;32.90;31.80;;;;;;957580;147;27316;-75
2023/07/17 12:46:05;;;;;;;2.65;2.17;;;32.90;31.80;;;;;;957540;147;27368;-75
2023/07/17 12:48:31;;;;;;;2.55;1.98;;;32.80;31.70;;;;;;952725;148;27352;-75